createdAt,value
2023-03-01T00:01:03.852Z,4.59
2023-03-01T00:03:30.437Z,4.73
2023-03-01T00:05:56.976Z,4.56
2023-03-01T00:08:23.448Z,4.54
2023-03-01T00:10:50.059Z,4.71
2023-03-01T00:13:16.601Z,4.86
2023-03-01T00:15:43.128Z,4.65
2023-03-01T00:18:09.580Z,4.48
2023-03-01T00:20:36.142Z,4.40
2023-03-01T00:23:02.651Z,4.60
2023-03-01T00:25:29.150Z,4.49
2023-03-01T00:27:55.681Z,4.58
2023-03-01T00:30:22.195Z,4.23
2023-03-01T00:32:48.691Z,4.06
2023-03-01T00:35:15.568Z,4.02
2023-03-01T00:37:42.484Z,3.67
2023-03-01T00:40:09.504Z,4.06
2023-03-01T00:42:35.955Z,4.18
2023-03-01T00:45:02.431Z,4.20
2023-03-01T00:47:30.256Z,4.14
2023-03-01T00:49:56.740Z,4.21
2023-03-01T00:52:23.199Z,4.30
2023-03-01T00:54:49.726Z,4.17
2023-03-01T00:57:16.205Z,4.20
2023-03-01T00:59:42.794Z,4.49
2023-03-01T01:02:09.595Z,4.01
2023-03-01T01:04:36.152Z,4.06
2023-03-01T01:07:02.674Z,4.16
2023-03-01T01:09:29.172Z,3.85
2023-03-01T01:11:55.630Z,3.72
2023-03-01T01:14:22.201Z,3.64
2023-03-01T01:16:48.737Z,3.43
2023-03-01T01:19:15.480Z,3.83
2023-03-01T01:21:44.231Z,3.87
2023-03-01T01:24:11.192Z,3.51
2023-03-01T01:26:37.701Z,3.65
2023-03-01T01:29:05.856Z,3.88
2023-03-01T01:31:33.226Z,3.40
2023-03-01T01:34:01.043Z,2.78
2023-03-01T01:36:27.964Z,2.80
2023-03-01T01:38:54.784Z,2.88
2023-03-01T01:41:22.338Z,3.05
2023-03-01T01:44:09.385Z,3.09
2023-03-01T01:46:38.929Z,2.87
2023-03-01T01:49:11.125Z,3.25
2023-03-01T01:51:41.273Z,2.68
2023-03-01T01:54:13.649Z,2.94
2023-03-01T01:56:42.283Z,2.87
2023-03-01T01:59:09.031Z,2.88
2023-03-01T02:01:35.554Z,2.92
2023-03-01T02:04:02.099Z,2.36
2023-03-01T02:06:35.212Z,2.63
2023-03-01T02:09:06.515Z,2.43
2023-03-01T02:11:33.723Z,2.35
2023-03-01T02:14:00.693Z,2.71
2023-03-01T02:16:27.669Z,2.62
2023-03-01T02:18:54.459Z,2.49
2023-03-01T02:21:35.661Z,2.28
2023-03-01T02:24:12.245Z,2.24
2023-03-01T02:26:51.037Z,2.49
2023-03-01T02:29:17.648Z,2.25
2023-03-01T02:31:44.324Z,2.39
2023-03-01T02:34:14.226Z,2.78
2023-03-01T02:36:45.371Z,2.11
2023-03-01T02:39:17.561Z,2.27
2023-03-01T02:41:48.805Z,2.00
2023-03-01T02:44:15.306Z,1.91
2023-03-01T02:46:53.142Z,1.50
2023-03-01T02:49:26.746Z,2.05
2023-03-01T02:52:06.012Z,1.69
2023-03-01T02:54:39.838Z,1.79
2023-03-01T02:57:06.602Z,1.55
2023-03-01T02:59:40.485Z,2.13
2023-03-01T03:02:39.686Z,2.04
2023-03-01T03:05:09.284Z,1.93
2023-03-01T03:07:37.929Z,1.48
2023-03-01T03:10:07.350Z,1.77
2023-03-01T03:12:33.844Z,2.26
2023-03-01T03:15:00.300Z,1.71
2023-03-01T03:17:26.776Z,1.94
2023-03-01T03:19:53.278Z,1.81
2023-03-01T03:22:19.784Z,2.08
2023-03-01T03:24:46.219Z,2.06
2023-03-01T03:27:12.674Z,2.33
2023-03-01T03:29:39.128Z,2.27
2023-03-01T03:32:05.646Z,2.25
2023-03-01T03:34:32.140Z,2.57
2023-03-01T03:37:00.437Z,2.81
2023-03-01T03:39:28.202Z,3.21
2023-03-01T03:41:54.962Z,2.07
2023-03-01T03:44:22.150Z,2.67
2023-03-01T03:46:48.613Z,2.65
2023-03-01T03:49:15.099Z,2.45
2023-03-01T03:51:41.553Z,2.57
2023-03-01T03:54:08.063Z,2.55
2023-03-01T03:56:34.650Z,2.37
2023-03-01T03:59:01.232Z,1.99
2023-03-01T04:01:27.718Z,2.64
2023-03-01T04:03:55.524Z,2.46
2023-03-01T04:06:22.221Z,1.92
2023-03-01T04:08:52.068Z,2.63
2023-03-01T04:11:27.706Z,2.58
2023-03-01T04:13:56.556Z,2.74
2023-03-01T04:16:23.661Z,2.62
2023-03-01T04:18:50.455Z,2.49
2023-03-01T04:21:17.135Z,1.82
2023-03-01T04:23:43.738Z,2.10
2023-03-01T04:26:10.421Z,2.58
2023-03-01T04:28:41.008Z,2.11
2023-03-01T04:31:17.435Z,2.38
2023-03-01T04:33:46.402Z,2.85
2023-03-01T04:36:14.758Z,2.74
2023-03-01T04:38:42.152Z,2.81
2023-03-01T04:41:11.730Z,2.90
2023-03-01T04:43:38.942Z,2.96
2023-03-01T04:46:09.216Z,2.85
2023-03-01T04:48:37.489Z,2.88
2023-03-01T04:51:04.688Z,3.01
2023-03-01T04:53:33.458Z,3.13
2023-03-01T04:56:00.186Z,2.40
2023-03-01T04:58:27.936Z,2.43
2023-03-01T05:00:54.806Z,2.66
2023-03-01T05:03:21.701Z,2.91
2023-03-01T05:05:51.685Z,2.63
2023-03-01T05:08:18.824Z,2.68
2023-03-01T05:10:47.778Z,2.85
2023-03-01T05:13:16.122Z,2.67
2023-03-01T05:15:42.982Z,3.01
2023-03-01T05:18:12.328Z,3.00
2023-03-01T05:20:39.260Z,2.46
2023-03-01T05:23:06.381Z,2.95
2023-03-01T05:25:41.032Z,2.97
2023-03-01T05:28:11.007Z,2.91
2023-03-01T05:30:37.481Z,2.96
2023-03-01T05:33:03.973Z,2.64
2023-03-01T05:35:30.579Z,2.39
2023-03-01T05:37:57.170Z,2.18
2023-03-01T05:40:25.204Z,2.33
2023-03-01T05:42:56.081Z,2.56
2023-03-01T05:45:24.482Z,2.65
2023-03-01T05:47:51.405Z,2.83
2023-03-01T05:50:29.282Z,2.34
2023-03-01T05:53:02.103Z,2.27
2023-03-01T05:55:29.902Z,2.64
2023-03-01T05:57:56.636Z,2.58
2023-03-01T06:00:23.627Z,2.51
2023-03-01T06:02:50.226Z,2.56
2023-03-01T06:05:17.099Z,2.79
2023-03-01T06:07:43.554Z,2.68
2023-03-01T06:10:11.949Z,3.06
2023-03-01T06:12:39.646Z,2.83
2023-03-01T06:15:07.771Z,2.91
2023-03-01T06:17:38.696Z,2.78
2023-03-01T06:20:31.739Z,2.74
2023-03-01T06:22:58.275Z,2.65
2023-03-01T06:25:26.617Z,2.44
2023-03-01T06:27:55.976Z,2.37
2023-03-01T06:30:24.206Z,2.19
2023-03-01T06:32:50.937Z,2.45
2023-03-01T06:35:19.023Z,2.48
2023-03-01T06:37:46.819Z,2.36
2023-03-01T06:40:14.911Z,2.62
2023-03-01T06:42:42.918Z,2.53
2023-03-01T06:45:10.754Z,2.17
2023-03-01T06:47:37.201Z,2.76
2023-03-01T06:50:04.114Z,2.85
2023-03-01T06:52:30.865Z,2.79
2023-03-01T06:54:57.398Z,2.59
2023-03-01T06:57:23.999Z,2.78
2023-03-01T06:59:50.518Z,2.82
2023-03-01T07:02:17.104Z,2.80
2023-03-01T07:04:43.726Z,2.76
2023-03-01T07:07:10.353Z,2.84
2023-03-01T07:09:36.998Z,3.26
2023-03-01T07:12:03.712Z,2.82
2023-03-01T07:14:30.325Z,3.24
2023-03-01T07:16:56.794Z,3.21
2023-03-01T07:19:23.998Z,2.84
2023-03-01T07:21:50.507Z,2.74
2023-03-01T07:24:17.018Z,2.65
2023-03-01T07:26:43.484Z,2.67
2023-03-01T07:29:11.364Z,2.89
2023-03-01T07:31:37.853Z,2.67
2023-03-01T07:34:04.366Z,2.98
2023-03-01T07:36:31.107Z,2.88
2023-03-01T07:38:58.873Z,2.89
2023-03-01T07:41:25.485Z,2.46
2023-03-01T07:43:51.975Z,2.80
2023-03-01T07:46:20.192Z,1.88
2023-03-01T07:48:47.026Z,1.76
2023-03-01T07:51:13.795Z,1.95
2023-03-01T07:53:40.250Z,2.51
2023-03-01T07:56:12.017Z,2.16
2023-03-01T07:58:40.629Z,2.25
2023-03-01T08:01:11.671Z,2.76
2023-03-01T08:03:38.953Z,3.32
2023-03-01T08:06:07.431Z,3.60
2023-03-01T08:08:34.692Z,3.37
2023-03-01T08:11:02.253Z,3.56
2023-03-01T08:13:29.216Z,3.22
2023-03-01T08:15:55.954Z,3.16
2023-03-01T08:18:22.629Z,3.07
2023-03-01T08:20:49.135Z,3.09
2023-03-01T08:23:15.643Z,3.22
2023-03-01T08:25:42.421Z,2.50
2023-03-01T08:28:08.868Z,2.92
2023-03-01T08:30:35.782Z,3.49
2023-03-01T08:33:02.275Z,3.48
2023-03-01T08:35:28.785Z,3.68
2023-03-01T08:37:55.250Z,3.93
2023-03-01T08:40:21.733Z,2.87
2023-03-01T08:42:48.195Z,3.14
2023-03-01T08:45:19.087Z,3.22
2023-03-01T08:47:46.273Z,2.88
2023-03-01T08:50:12.982Z,3.74
2023-03-01T08:52:39.546Z,4.14
2023-03-01T08:55:06.937Z,4.18
2023-03-01T08:57:33.401Z,2.97
2023-03-01T08:59:59.857Z,3.28
2023-03-01T09:02:26.310Z,3.18
2023-03-01T09:04:52.766Z,3.25
2023-03-01T09:07:19.256Z,3.96
2023-03-01T09:09:45.857Z,4.00
2023-03-01T09:12:12.332Z,3.52
2023-03-01T09:14:39.814Z,4.20
2023-03-01T09:17:06.368Z,4.34
2023-03-01T09:19:32.909Z,4.19
2023-03-01T09:21:59.453Z,3.83
2023-03-01T09:24:26.520Z,4.45
2023-03-01T09:26:57.376Z,4.21
2023-03-01T09:29:24.364Z,3.29
2023-03-01T09:31:50.912Z,3.56
2023-03-01T09:34:20.277Z,3.90
2023-03-01T09:36:46.744Z,3.56
2023-03-01T09:39:13.228Z,4.17
2023-03-01T09:42:03.314Z,3.83
2023-03-01T09:44:39.139Z,3.57
2023-03-01T09:47:06.769Z,3.69
2023-03-01T09:49:36.560Z,4.61
2023-03-01T09:52:42.720Z,5.13
2023-03-01T09:55:13.046Z,3.90
2023-03-01T09:57:55.751Z,4.85
2023-03-01T10:00:31.778Z,4.65
2023-03-01T10:03:26.092Z,4.23
2023-03-01T10:06:01.156Z,4.01
2023-03-01T10:08:44.329Z,4.11
2023-03-01T10:11:26.612Z,5.69
2023-03-01T10:13:59.468Z,5.47
2023-03-01T10:16:34.212Z,4.85
2023-03-01T10:19:04.211Z,4.95
2023-03-01T10:21:33.829Z,4.80
2023-03-01T10:24:12.496Z,4.83
2023-03-01T10:26:46.092Z,4.92
2023-03-01T10:29:13.850Z,4.81
2023-03-01T10:31:45.964Z,5.57
2023-03-01T10:34:18.379Z,5.76
2023-03-01T10:36:48.855Z,5.76
2023-03-01T10:39:22.029Z,5.55
2023-03-01T10:42:20.548Z,4.65
2023-03-01T10:44:49.408Z,5.01
2023-03-01T10:47:25.692Z,5.76
2023-03-01T10:49:53.139Z,5.56
2023-03-01T10:52:22.069Z,6.02
2023-03-01T10:54:57.929Z,6.22
2023-03-01T10:57:42.412Z,5.62
2023-03-01T11:00:25.038Z,4.93
2023-03-01T11:03:00.661Z,5.32
2023-03-01T11:05:29.396Z,5.20
2023-03-01T11:07:58.004Z,5.79
2023-03-01T11:10:30.001Z,4.80
2023-03-01T11:13:17.055Z,5.55
2023-03-01T11:15:43.955Z,6.44
2023-03-01T11:18:21.613Z,5.53
2023-03-01T11:20:49.397Z,5.35
2023-03-01T11:23:16.624Z,5.84
2023-03-01T11:25:45.322Z,6.53
2023-03-01T11:28:16.135Z,6.50
2023-03-01T11:31:06.847Z,6.65
2023-03-01T11:34:09.483Z,5.31
2023-03-01T11:36:37.817Z,5.56
2023-03-01T11:39:28.735Z,5.04
2023-03-01T11:42:18.103Z,5.60
2023-03-01T11:44:46.728Z,5.66
2023-03-01T11:47:45.775Z,6.71
2023-03-01T11:50:32.024Z,5.85
2023-03-01T11:53:01.780Z,5.89
2023-03-01T11:55:54.056Z,6.25
2023-03-01T11:58:58.077Z,6.49
2023-03-01T12:01:37.269Z,6.63
2023-03-01T12:04:10.806Z,7.08
2023-03-01T12:06:57.801Z,6.29
2023-03-01T12:10:04.706Z,7.09
2023-03-01T12:12:54.356Z,6.93
2023-03-01T12:15:53.672Z,6.38
2023-03-01T12:18:34.408Z,7.31
2023-03-01T12:21:06.750Z,7.69
2023-03-01T12:24:11.393Z,6.73
2023-03-01T12:26:47.412Z,6.28
2023-03-01T12:29:24.997Z,6.70
2023-03-01T12:32:20.388Z,7.14
2023-03-01T12:35:08.935Z,7.70
2023-03-01T12:37:58.170Z,6.37
2023-03-01T12:40:35.020Z,6.29
2023-03-01T12:43:39.055Z,6.92
2023-03-01T12:46:36.542Z,8.08
2023-03-01T12:49:10.325Z,7.98
2023-03-01T12:51:39.182Z,7.82
2023-03-01T12:54:16.883Z,7.85
2023-03-01T12:56:43.649Z,7.90
2023-03-01T12:59:17.965Z,7.82
2023-03-01T13:01:53.040Z,7.36
2023-03-01T13:04:33.886Z,7.73
2023-03-01T13:07:12.534Z,7.70
2023-03-01T13:09:56.766Z,7.50
2023-03-01T13:12:45.350Z,8.43
2023-03-01T13:15:23.709Z,7.00
2023-03-01T13:18:16.595Z,7.16
2023-03-01T13:20:43.221Z,7.39
2023-03-01T13:23:14.580Z,7.51
2023-03-01T13:25:59.744Z,7.57
2023-03-01T13:28:35.508Z,6.98
2023-03-01T13:31:03.863Z,7.25
2023-03-01T13:33:30.306Z,7.94
2023-03-01T13:36:00.722Z,8.30
2023-03-01T13:38:47.329Z,7.93
2023-03-01T13:41:39.370Z,8.18
2023-03-01T13:44:30.042Z,7.24
2023-03-01T13:47:06.996Z,6.92
2023-03-01T13:49:46.559Z,7.60
2023-03-01T13:52:40.545Z,6.96
2023-03-01T13:55:43.025Z,7.42
2023-03-01T13:58:32.759Z,7.21
2023-03-01T14:01:00.932Z,6.98
2023-03-01T14:03:28.235Z,7.22
2023-03-01T14:06:13.267Z,6.77
2023-03-01T14:08:43.728Z,7.00
2023-03-01T14:11:26.428Z,7.12
2023-03-01T14:13:59.718Z,7.01
2023-03-01T14:16:45.893Z,6.74
2023-03-01T14:19:33.227Z,7.22
2023-03-01T14:22:05.632Z,7.89
2023-03-01T14:24:33.914Z,7.16
2023-03-01T14:27:02.322Z,7.46
2023-03-01T14:29:38.971Z,7.53
2023-03-01T14:32:23.577Z,7.04
2023-03-01T14:34:51.600Z,6.86
2023-03-01T14:37:35.165Z,6.97
2023-03-01T14:40:03.715Z,6.64
2023-03-01T14:42:34.608Z,6.26
2023-03-01T14:45:02.068Z,6.09
2023-03-01T14:47:33.467Z,6.53
2023-03-01T14:50:08.287Z,6.80
2023-03-01T14:52:39.724Z,6.51
2023-03-01T14:55:14.514Z,6.21
2023-03-01T14:57:44.587Z,6.32
2023-03-01T15:00:18.964Z,6.00
2023-03-01T15:02:47.437Z,5.78
2023-03-01T15:05:15.530Z,5.71
2023-03-01T15:07:49.886Z,5.83
2023-03-01T15:10:25.215Z,5.40
2023-03-01T15:12:53.824Z,5.27
2023-03-01T15:15:29.498Z,5.51
2023-03-01T15:17:58.102Z,5.56
2023-03-01T15:20:26.918Z,5.22
2023-03-01T15:22:54.707Z,5.86
2023-03-01T15:25:25.048Z,5.81
2023-03-01T15:27:52.962Z,5.83
2023-03-01T15:30:22.858Z,5.29
2023-03-01T15:32:49.570Z,5.41
2023-03-01T15:35:46.655Z,5.52
2023-03-01T15:38:36.155Z,5.60
2023-03-01T15:41:33.268Z,5.81
2023-03-01T15:44:00.938Z,6.15
2023-03-01T15:46:33.555Z,5.55
2023-03-01T15:49:03.477Z,6.41
2023-03-01T15:51:35.352Z,6.17
2023-03-01T15:54:08.012Z,5.91
2023-03-01T15:56:34.453Z,5.58
2023-03-01T15:59:03.289Z,5.35
2023-03-01T16:01:30.268Z,5.77
2023-03-01T16:03:57.540Z,5.45
2023-03-01T16:06:23.978Z,5.89
2023-03-01T16:08:50.480Z,5.63
2023-03-01T16:11:19.026Z,5.78
2023-03-01T16:13:46.420Z,5.02
2023-03-01T16:16:17.136Z,5.17
2023-03-01T16:18:47.788Z,5.56
2023-03-01T16:21:21.818Z,5.73
2023-03-01T16:23:48.652Z,5.81
2023-03-01T16:26:15.313Z,6.10
2023-03-01T16:28:43.061Z,5.55
2023-03-01T16:31:10.257Z,6.01
2023-03-01T16:33:37.711Z,5.66
2023-03-01T16:36:12.075Z,5.57
2023-03-01T16:38:39.655Z,5.83
2023-03-01T16:41:06.512Z,5.75
2023-03-01T16:43:32.987Z,5.23
2023-03-01T16:46:00.006Z,5.09
2023-03-01T16:48:27.105Z,5.14
2023-03-01T16:50:58.221Z,5.31
2023-03-01T16:53:24.663Z,5.04
2023-03-01T16:55:58.422Z,4.52
2023-03-01T16:58:25.695Z,3.95
2023-03-01T17:00:54.387Z,4.27
2023-03-01T17:03:22.536Z,4.84
2023-03-01T17:05:49.148Z,4.12
2023-03-01T17:08:15.884Z,4.66
2023-03-01T17:10:45.235Z,4.00
2023-03-01T17:13:13.078Z,3.71
2023-03-01T17:15:43.332Z,3.85
2023-03-01T17:18:09.884Z,4.29
2023-03-01T17:20:36.980Z,3.36
2023-03-01T17:23:03.910Z,3.35
2023-03-01T17:25:30.400Z,4.15
2023-03-01T17:27:56.871Z,3.63
2023-03-01T17:30:23.477Z,3.68
2023-03-01T17:32:50.230Z,4.67
2023-03-01T17:35:16.893Z,3.68
2023-03-01T17:37:46.524Z,3.79
2023-03-01T17:40:13.381Z,3.46
2023-03-01T17:42:39.897Z,3.94
2023-03-01T17:45:07.272Z,4.01
2023-03-01T17:47:33.709Z,4.48
2023-03-01T17:50:00.520Z,3.46
2023-03-01T17:52:27.034Z,3.46
2023-03-01T17:54:53.502Z,3.37
2023-03-01T17:57:19.944Z,3.44
2023-03-01T17:59:46.412Z,3.54
2023-03-01T18:02:13.510Z,3.58
2023-03-01T18:04:40.023Z,2.94
2023-03-01T18:07:06.434Z,3.47
2023-03-01T18:09:33.008Z,3.79
2023-03-01T18:11:59.515Z,3.97
2023-03-01T18:14:29.830Z,3.71
2023-03-01T18:16:56.398Z,3.16
2023-03-01T18:19:23.004Z,3.61
2023-03-01T18:21:49.565Z,4.08
2023-03-01T18:24:16.682Z,4.15
2023-03-01T18:26:43.413Z,3.86
2023-03-01T18:29:10.605Z,3.88
2023-03-01T18:31:37.608Z,4.02
2023-03-01T18:34:04.354Z,3.88
2023-03-01T18:36:33.238Z,3.55
2023-03-01T18:39:02.066Z,3.90
2023-03-01T18:41:29.292Z,4.39
2023-03-01T18:43:57.070Z,4.59
2023-03-01T18:46:23.794Z,3.88
2023-03-01T18:48:52.048Z,4.50
2023-03-01T18:51:26.773Z,5.17
2023-03-01T18:53:53.752Z,4.98
2023-03-01T18:56:20.264Z,4.79
2023-03-01T18:58:46.711Z,4.23
2023-03-01T19:01:22.723Z,3.95
2023-03-01T19:03:49.830Z,4.06
2023-03-01T19:06:17.255Z,4.26
2023-03-01T19:08:46.114Z,4.25
2023-03-01T19:11:14.077Z,4.32
2023-03-01T19:13:41.142Z,4.37
2023-03-01T19:16:13.656Z,4.86
2023-03-01T19:18:42.252Z,4.32
2023-03-01T19:21:12.818Z,4.17
2023-03-01T19:23:39.373Z,4.50
2023-03-01T19:26:14.093Z,4.22
2023-03-01T19:28:41.252Z,3.77
2023-03-01T19:31:10.419Z,3.66
2023-03-01T19:33:37.820Z,3.33
2023-03-01T19:36:07.257Z,2.97
2023-03-01T19:38:34.944Z,3.43
2023-03-01T19:41:10.022Z,3.85
2023-03-01T19:43:36.852Z,3.96
2023-03-01T19:46:03.778Z,3.89
2023-03-01T19:48:30.258Z,4.27
2023-03-01T19:50:56.827Z,4.14
2023-03-01T19:53:23.321Z,4.02
2023-03-01T19:55:53.004Z,4.36
2023-03-01T19:58:19.568Z,4.10
2023-03-01T20:00:47.265Z,4.17
2023-03-01T20:03:14.063Z,3.54
2023-03-01T20:05:42.812Z,3.45
2023-03-01T20:08:09.540Z,3.82
2023-03-01T20:10:36.139Z,4.39
2023-03-01T20:13:02.742Z,4.12
2023-03-01T20:15:29.473Z,3.91
2023-03-01T20:17:55.955Z,3.58
2023-03-01T20:20:22.421Z,3.59
2023-03-01T20:22:48.892Z,3.87
2023-03-01T20:25:15.475Z,4.28
2023-03-01T20:27:42.082Z,4.53
2023-03-01T20:30:09.363Z,4.27
2023-03-01T20:32:35.938Z,4.45
2023-03-01T20:35:03.188Z,4.70
2023-03-01T20:37:29.728Z,4.40
2023-03-01T20:39:56.201Z,4.01
2023-03-01T20:42:22.773Z,4.31
2023-03-01T20:44:49.266Z,4.00
2023-03-01T20:47:16.291Z,3.82
2023-03-01T20:49:42.781Z,3.66
2023-03-01T20:52:09.354Z,4.19
2023-03-01T20:54:36.223Z,4.39
2023-03-01T20:57:02.864Z,3.78
2023-03-01T20:59:29.350Z,3.88
2023-03-01T21:01:55.962Z,4.11
2023-03-01T21:04:22.769Z,3.68
2023-03-01T21:06:49.409Z,3.38
2023-03-01T21:09:16.002Z,4.09
2023-03-01T21:11:42.538Z,3.74
2023-03-01T21:14:09.481Z,3.99
2023-03-01T21:16:36.514Z,4.49
2023-03-01T21:19:06.069Z,4.42
2023-03-01T21:21:32.677Z,4.43
2023-03-01T21:23:59.154Z,4.55
2023-03-01T21:26:26.968Z,4.48
2023-03-01T21:28:58.906Z,4.72
2023-03-01T21:31:35.541Z,4.48
2023-03-01T21:34:04.753Z,4.27
2023-03-01T21:36:32.069Z,4.33
2023-03-01T21:39:00.730Z,4.14
2023-03-01T21:41:31.188Z,3.65
2023-03-01T21:44:00.804Z,3.42
2023-03-01T21:46:30.767Z,3.94
2023-03-01T21:48:57.650Z,3.27
2023-03-01T21:51:26.744Z,3.39
2023-03-01T21:53:55.756Z,2.97
2023-03-01T21:56:26.125Z,3.34
2023-03-01T21:58:53.222Z,3.71
2023-03-01T22:01:25.795Z,3.25
2023-03-01T22:03:52.495Z,3.65
2023-03-01T22:06:22.818Z,3.85
2023-03-01T22:08:56.281Z,3.52
2023-03-01T22:11:24.116Z,3.66
2023-03-01T22:13:52.343Z,4.32
2023-03-01T22:16:27.824Z,3.96
2023-03-01T22:18:54.590Z,4.28
2023-03-01T22:21:23.035Z,3.53
2023-03-01T22:23:49.592Z,3.56
2023-03-01T22:26:30.318Z,3.92
2023-03-01T22:28:58.948Z,3.73
2023-03-01T22:31:26.160Z,3.87
2023-03-01T22:33:53.511Z,3.28
2023-03-01T22:36:20.669Z,2.68
2023-03-01T22:38:47.662Z,2.72
2023-03-01T22:41:16.072Z,2.69
2023-03-01T22:43:42.559Z,2.77
2023-03-01T22:46:16.789Z,3.01
2023-03-01T22:48:43.717Z,3.24
2023-03-01T22:51:21.309Z,3.34
2023-03-01T22:53:48.133Z,3.27
2023-03-01T22:56:20.544Z,3.24
2023-03-01T22:58:47.376Z,2.83
2023-03-01T23:01:16.076Z,3.40
2023-03-01T23:03:43.738Z,3.78
2023-03-01T23:06:10.691Z,3.61
2023-03-01T23:08:37.928Z,3.41
2023-03-01T23:11:10.682Z,3.57
2023-03-01T23:13:37.237Z,3.71
2023-03-01T23:16:03.898Z,3.39
2023-03-01T23:18:30.387Z,3.58
2023-03-01T23:20:56.930Z,4.16
2023-03-01T23:23:23.417Z,3.81
2023-03-01T23:25:54.609Z,4.00
2023-03-01T23:28:21.452Z,3.84
2023-03-01T23:31:05.050Z,3.78
2023-03-01T23:33:38.749Z,4.37
2023-03-01T23:36:19.306Z,4.15
2023-03-01T23:38:47.484Z,4.08
2023-03-01T23:41:19.516Z,3.99
2023-03-01T23:43:50.957Z,4.43
2023-03-01T23:46:18.850Z,4.44
2023-03-01T23:48:45.778Z,4.20
2023-03-01T23:51:12.744Z,3.96
2023-03-01T23:53:54.009Z,3.87
2023-03-01T23:56:26.274Z,4.11
2023-03-01T23:58:57.764Z,3.97
